Time;durP1;ratioP1;P1;durP2;ratioP2;P2;SDS_P1;SDS_P2;PMS_P1;PMS_P2;Temp;Humidity;BMP_temperature;BMP_pressure;BME280_temperature;BME280_humidity;BME280_pressure;Samples;Min_cycle;Max_cycle;Signal;HPM_P1;HPM_P2
2021/06/26 03:15:44;;;;;;;;;;;;;;;8.02;89.22;99831.34;6281750;22;19980;-89
2021/06/26 03:18:13;;;;;;;;;;;;;;;8.10;90.35;99825.84;6281136;22;20328;-89
2021/06/26 03:20:38;;;;;;;;;;;;;;;8.06;88.14;99827.72;6281337;22;19926;-88
2021/06/26 03:23:41;;;;;;;;;;;;;;;7.85;87.61;99831.91;6282675;22;19986;-91
2021/06/26 03:26:07;;;;;;;;;;;;;;;7.63;88.42;99827.25;6293900;22;19934;-90
2021/06/26 03:28:33;;;;;;;;;;;;;;;7.58;88.93;99823.06;6288016;22;19923;-88
2021/06/26 03:30:58;;;;;;;;;;;;;;;7.58;88.71;99830.97;6282239;22;19922;-89
2021/06/26 03:33:24;;;;;;;;;;;;;;;7.53;88.60;99832.84;6282571;22;19919;-89
2021/06/26 03:35:49;;;;;;;;;;;;;;;7.53;89.09;99832.84;6256947;22;19958;-89
2021/06/26 03:38:14;;;;;;;;;;;;;;;7.57;88.34;99830.06;6282728;22;19949;-86
2021/06/26 03:40:40;;;;;;;;;;;;;;;7.50;88.82;99838.22;6281579;22;19946;-87
2021/06/26 03:43:05;;;;;;;;;;;;;;;7.42;89.14;99839.31;6282149;22;19927;-88
2021/06/26 03:45:30;;;;;;;;;;;;;;;7.52;89.44;99836.41;6282877;22;19911;-90
2021/06/26 03:47:56;;;;;;;;;;;;;;;7.51;89.10;99834.66;6259437;22;19915;-90
2021/06/26 04:39:16;;;;;;;;;;;;;;;8.05;94.99;99828.63;6286223;22;20255;-91
2021/06/26 04:41:44;;;;;;;;;;;;;;;8.06;92.63;99827.72;6282437;22;19938;-90
2021/06/26 04:44:10;;;;;;;;;;;;;;;8.13;94.81;99842.41;6281911;22;19922;-90
2021/06/26 04:46:56;;;;;;;;;;;;;;;8.26;93.29;99836.75;6256872;22;20243;-90
2021/06/26 09:22:58;;;;;;;;;;;;;;;8.37;95.77;99806.44;6285019;22;19991;-90
2021/06/26 09:25:42;;;;;;;;;;;;;;;8.40;95.71;99809.91;6262850;22;19934;-91
2021/06/26 09:28:35;;;;;;;;;;;;;;;8.36;95.58;99812.66;6257872;22;19922;-91
2021/06/26 09:34:23;;;;;;;;;;;;;;;;;;;;;
2021/06/26 09:37:02;;;;;;;;;;;;;;;8.32;96.08;99811.00;6289349;22;19921;-89
2021/06/26 09:44:56;;;;;;;;;;;;;;;8.23;95.50;99813.94;6283923;22;19907;-91
2021/06/26 09:58:25;;;;;;;;;;;;;;;8.43;93.93;99809.81;6287943;22;19927;-91
2021/06/26 10:01:13;;;;;;;;;;;;;;;;;;;;;
2021/06/26 10:04:20;;;;;;;;;;;;;;;8.50;95.57;99792.84;6285390;22;19947;-91
2021/06/26 10:23:54;;;;;;;;;;;;;;;8.94;91.59;99773.75;6283180;22;19924;-92
2021/06/26 10:42:39;;;;;;;;;;;;;;;;;;;;;
2021/06/26 10:45:06;;;;;;;;;;;;;;;8.86;93.50;99769.56;6216253;22;19951;-90
2021/06/26 10:47:37;;;;;;;;;;;;;;;8.95;92.47;99759.59;6288905;22;19919;-89
2021/06/26 10:50:31;;;;;;;;;;;;;;;;;;;;;
2021/06/26 10:53:05;;;;;;;;;;;;;;;8.82;93.86;99775.91;6287003;22;19942;-89
2021/06/26 10:55:42;;;;;;;;;;;;;;;8.83;93.38;99763.53;6285412;22;19953;-90
2021/06/26 11:04:16;;;;;;;;;;;;;;;8.65;93.50;99762.44;6245529;22;19922;-91
2021/06/26 11:07:02;;;;;;;;;;;;;;;8.57;93.17;99760.06;6258721;22;19911;-91
2021/06/26 11:12:48;;;;;;;;;;;;;;;8.89;91.79;99748.31;6267925;22;19938;-90
2021/06/26 11:18:13;;;;;;;;;;;;;;;8.77;92.72;99758.47;6282314;22;20215;-91
2021/06/26 11:20:51;;;;;;;;;;;;;;;;;;;;;
2021/06/26 11:28:26;;;;;;;;;;;;;;;;;;;;;
2021/06/26 11:31:28;;;;;;;;;;;;;;;;;;;;;
2021/06/26 11:33:58;;;;;;;;;;;;;;;8.72;92.14;99748.06;6247174;22;19947;-92
2021/06/26 11:36:37;;;;;;;;;;;;;;;8.68;91.86;99751.72;6285874;22;19919;-90
2021/06/26 11:39:22;;;;;;;;;;;;;;;;;;;;;
2021/06/26 11:41:56;;;;;;;;;;;;;;;8.73;93.23;99749.81;6284861;22;19930;-92
2021/06/26 11:44:36;;;;;;;;;;;;;;;8.78;91.40;99753.16;6260293;22;19916;-92
2021/06/26 11:47:06;;;;;;;;;;;;;;;8.72;92.45;99751.56;6288089;22;19915;-90
2021/06/26 11:49:52;;;;;;;;;;;;;;;8.68;92.25;99755.25;6287344;22;19915;-91
2021/06/26 11:52:17;;;;;;;;;;;;;;;8.58;93.00;99752.97;6285287;22;19919;-89
2021/06/26 11:54:43;;;;;;;;;;;;;;;8.65;92.35;99743.94;6286298;22;20523;-91
2021/06/26 11:57:12;;;;;;;;;;;;;;;8.62;92.34;99741.41;6285029;22;19931;-89
2021/06/26 11:59:38;;;;;;;;;;;;;;;8.63;92.04;99737.84;6256135;22;19915;-91
2021/06/26 12:02:12;;;;;;;;;;;;;;;8.64;92.40;99743.06;6284689;22;20028;-90
2021/06/26 12:04:49;;;;;;;;;;;;;;;8.60;92.05;99743.22;6284432;22;20200;-90
2021/06/26 12:09:41;;;;;;;;;;;;;;;8.60;91.95;99738.81;6284093;22;19990;-90
2021/06/26 12:12:10;;;;;;;;;;;;;;;8.79;90.81;99733.75;6257271;22;20374;-89
2021/06/26 12:14:41;;;;;;;;;;;;;;;8.61;91.85;99734.38;6282806;22;19915;-90
2021/06/26 12:17:09;;;;;;;;;;;;;;;8.65;91.61;99731.59;6284580;22;19930;-91
2021/06/26 12:20:17;;;;;;;;;;;;;;;;;;;;;
2021/06/26 12:23:14;;;;;;;;;;;;;;;;;;;;;
2021/06/26 12:50:58;;;;;;;;;;;;;;;;;;;;;
2021/06/26 12:53:40;;;;;;;;;;;;;;;8.94;91.46;99705.88;6286668;22;19919;-91
2021/06/26 13:03:59;;;;;;;;;;;;;;;8.83;91.86;99693.06;6289039;22;19986;-90
2021/06/26 13:51:03;;;;;;;;;;;;;;;9.10;90.85;99648.00;6282798;22;19969;-90
2021/06/26 13:53:38;;;;;;;;;;;;;;;;;;;;;
2021/06/26 13:56:37;;;;;;;;;;;;;;;;;;;;;
2021/06/26 13:59:12;;;;;;;;;;;;;;;8.97;91.66;99641.50;6285981;22;19943;-90
2021/06/26 14:04:02;;;;;;;;;;;;;;;9.13;90.62;99634.69;6289269;22;20295;-90
2021/06/26 14:46:00;;;;;;;;;;;;;;;9.17;91.40;99640.69;6289324;22;20344;-91
2021/06/26 14:48:36;;;;;;;;;;;;;;;;;;;;;
2021/06/26 14:51:07;;;;;;;;;;;;;;;9.15;91.08;99637.25;6284833;22;20232;-90
2021/06/26 14:53:44;;;;;;;;;;;;;;;9.17;91.48;99630.97;6259061;22;19955;-90
2021/06/26 15:07:44;;;;;;;;;;;;;;;;;;;;;
2021/06/26 15:13:19;;;;;;;;;;;;;;;9.09;92.55;99614.56;6260951;22;19919;-91
2021/06/26 15:32:29;;;;;;;;;;;;;;;9.23;91.76;99599.00;6246653;22;19976;-91
2021/06/26 16:06:52;;;;;;;;;;;;;;;10.18;99.05;99575.59;6281299;22;19911;-91
2021/06/26 16:09:28;;;;;;;;;;;;;;;10.11;96.13;99574.16;6280872;22;20260;-91
2021/06/26 16:11:55;;;;;;;;;;;;;;;9.75;96.43;99566.06;6281496;22;19942;-90
2021/06/26 16:14:22;;;;;;;;;;;;;;;9.75;96.04;99558.97;6280712;22;19915;-92
2021/06/26 16:16:47;;;;;;;;;;;;;;;9.55;96.33;99565.09;6256207;22;19927;-89
2021/06/26 16:19:13;;;;;;;;;;;;;;;9.59;95.67;99565.84;6281958;22;20292;-88
2021/06/26 16:21:38;;;;;;;;;;;;;;;9.59;94.86;99565.84;6280591;22;19915;-90
2021/06/26 16:24:13;;;;;;;;;;;;;;;9.60;94.25;99565.75;6254368;22;20200;-90
2021/06/26 16:26:47;;;;;;;;;;;;;;;9.71;94.09;99561.81;6255527;22;19916;-88
2021/06/26 16:29:12;;;;;;;;;;;;;;;9.49;95.83;99567.13;6255369;22;19922;-89
2021/06/26 16:31:38;;;;;;;;;;;;;;;9.49;94.44;99570.63;6281935;22;19986;-89
2021/06/26 16:34:05;;;;;;;;;;;;;;;9.46;95.14;99565.47;6282768;22;19923;-89
2021/06/26 16:36:32;;;;;;;;;;;;;;;9.62;94.32;99563.03;6281318;22;19972;-90
2021/06/26 16:39:00;;;;;;;;;;;;;;;9.53;93.82;99558.16;6280364;22;19926;-89
2021/06/26 16:41:26;;;;;;;;;;;;;;;9.55;94.43;99559.81;6281104;22;19965;-91
2021/06/26 16:43:54;;;;;;;;;;;;;;;9.60;93.45;99552.53;6255720;22;19920;-90
2021/06/26 16:46:19;;;;;;;;;;;;;;;9.45;94.50;99551.41;6280123;22;19949;-90
2021/06/26 16:48:45;;;;;;;;;;;;;;;9.47;94.26;99551.34;6279652;22;19915;-89
2021/06/26 16:51:13;;;;;;;;;;;;;;;9.55;94.87;99551.00;6282590;22;20323;-92
2021/06/26 16:53:38;;;;;;;;;;;;;;;9.44;94.20;99546.16;6280428;22;19919;-89
2021/06/26 16:56:04;;;;;;;;;;;;;;;9.53;94.00;99547.59;6280493;22;19933;-89
2021/06/26 16:58:31;;;;;;;;;;;;;;;9.45;94.49;99538.16;6279707;22;19957;-88
2021/06/26 17:00:57;;;;;;;;;;;;;;;9.69;93.09;99539.84;6280454;22;19927;-90
2021/06/26 17:03:23;;;;;;;;;;;;;;;9.68;93.35;99538.97;6282010;22;19934;-91
2021/06/26 17:05:48;;;;;;;;;;;;;;;9.57;96.13;99539.47;6280587;22;20018;-88
2021/06/26 17:08:17;;;;;;;;;;;;;;;9.94;97.16;99532.56;6280390;22;19919;-89
2021/06/26 17:10:42;;;;;;;;;;;;;;;9.68;94.20;99532.84;6280494;22;19915;-89
2021/06/26 17:13:08;;;;;;;;;;;;;;;9.53;94.92;99532.56;6280880;22;20383;-89
2021/06/26 17:15:33;;;;;;;;;;;;;;;9.56;95.26;99528.94;6280200;22;19919;-89
2021/06/26 17:17:59;;;;;;;;;;;;;;;9.65;94.15;99531.16;6280388;22;19943;-89
2021/06/26 17:20:27;;;;;;;;;;;;;;;9.62;94.01;99528.66;6280520;22;19938;-91
2021/06/26 17:22:56;;;;;;;;;;;;;;;9.54;94.36;99529.00;6279637;22;19919;-90
2021/06/26 17:25:21;;;;;;;;;;;;;;;9.62;94.44;99526.88;6253384;22;19915;-89
2021/06/26 17:27:47;;;;;;;;;;;;;;;9.61;94.75;99525.16;6280432;22;20307;-88
2021/06/26 17:30:12;;;;;;;;;;;;;;;9.52;95.74;99514.13;6253035;22;19915;-89
2021/06/26 17:32:40;;;;;;;;;;;;;;;9.50;95.59;99514.19;6253433;22;20292;-89
2021/06/26 17:35:09;;;;;;;;;;;;;;;9.48;95.00;99520.44;6279831;22;20142;-89
2021/06/26 17:37:35;;;;;;;;;;;;;;;9.49;96.14;99528.31;6253544;22;19919;-88
2021/06/26 17:40:00;;;;;;;;;;;;;;;9.54;95.07;99526.34;6280015;22;19926;-88
2021/06/26 17:42:25;;;;;;;;;;;;;;;9.59;95.38;99518.22;6280346;22;19926;-91
2021/06/26 17:45:14;;;;;;;;;;;;;;;9.53;94.67;99524.63;6254471;22;19915;-90
2021/06/26 17:47:41;;;;;;;;;;;;;;;9.66;93.85;99524.09;6233264;22;19915;-89
2021/06/26 17:50:07;;;;;;;;;;;;;;;9.75;92.85;99521.91;6279968;22;19915;-90
2021/06/26 17:52:33;;;;;;;;;;;;;;;9.77;92.46;99522.69;6280234;22;20003;-89
2021/06/26 17:55:01;;;;;;;;;;;;;;;9.63;93.31;99531.22;6253946;22;19915;-89
2021/06/26 17:57:26;;;;;;;;;;;;;;;9.66;93.71;99534.69;6278838;22;20041;-87
2021/06/26 17:59:52;;;;;;;;;;;;;;;9.63;93.85;99541.81;6279984;22;19915;-88
2021/06/26 18:02:18;;;;;;;;;;;;;;;9.55;94.28;99543.94;6279435;22;20302;-89
2021/06/26 18:05:07;;;;;;;;;;;;;;;9.73;94.40;99542.31;6279515;22;19973;-90
2021/06/26 18:07:40;;;;;;;;;;;;;;;9.60;93.41;99543.72;6278985;22;19925;-89
2021/06/26 18:10:32;;;;;;;;;;;;;;;9.56;94.19;99550.09;6254752;22;20334;-92
2021/06/26 18:12:59;;;;;;;;;;;;;;;9.61;94.36;99548.97;6275920;22;19949;-91
2021/06/26 18:15:24;;;;;;;;;;;;;;;9.69;93.29;99550.44;6254478;22;19927;-89
2021/06/26 18:17:49;;;;;;;;;;;;;;;9.64;94.57;99546.19;6253828;22;19915;-88
2021/06/26 18:20:15;;;;;;;;;;;;;;;9.66;93.87;99550.56;6279399;22;19911;-89
2021/06/26 18:22:41;;;;;;;;;;;;;;;9.73;92.52;99544.94;6278981;22;19919;-90
2021/06/26 18:25:07;;;;;;;;;;;;;;;9.63;94.23;99547.09;6280401;22;19915;-88
2021/06/26 18:27:35;;;;;;;;;;;;;;;9.66;92.94;99559.34;6281239;22;19986;-88
2021/06/26 18:30:01;;;;;;;;;;;;;;;9.53;94.21;99556.38;6279844;22;19974;-89
2021/06/26 18:32:26;;;;;;;;;;;;;;;9.60;94.29;99546.38;6253628;22;20265;-90
2021/06/26 18:34:52;;;;;;;;;;;;;;;9.63;94.34;99551.53;6279954;22;19922;-88
2021/06/26 18:37:17;;;;;;;;;;;;;;;9.50;95.45;99556.50;6279601;22;20225;-90
2021/06/26 18:39:42;;;;;;;;;;;;;;;9.45;95.89;99559.31;6279483;22;19972;-89
2021/06/26 18:42:08;;;;;;;;;;;;;;;9.48;96.26;99566.28;6280954;22;20497;-90
2021/06/26 18:44:36;;;;;;;;;;;;;;;9.55;94.00;99562.44;6254359;22;20254;-92
2021/06/26 18:47:02;;;;;;;;;;;;;;;9.64;93.42;99554.13;6252556;22;19915;-88
2021/06/26 18:49:28;;;;;;;;;;;;;;;9.53;95.44;99561.66;6279361;22;20300;-88
2021/06/26 18:51:54;;;;;;;;;;;;;;;9.47;94.51;99551.34;6277783;22;19919;-90
2021/06/26 18:54:20;;;;;;;;;;;;;;;9.68;93.34;99554.00;6278840;22;19942;-90
2021/06/26 18:56:45;;;;;;;;;;;;;;;9.57;94.18;99551.81;6279719;22;20280;-88
2021/06/26 18:59:14;;;;;;;;;;;;;;;9.51;95.95;99555.59;6278315;22;20212;-89
2021/06/26 19:01:40;;;;;;;;;;;;;;;9.65;93.39;99552.34;6278929;22;19923;-90
2021/06/26 19:04:26;;;;;;;;;;;;;;;9.56;94.98;99555.38;6280918;22;19922;-88
2021/06/26 19:06:52;;;;;;;;;;;;;;;9.59;93.55;99555.25;6280489;22;19915;-89
2021/06/26 19:09:18;;;;;;;;;;;;;;;9.60;94.20;99562.25;6280449;22;20029;-89
2021/06/26 19:12:05;;;;;;;;;;;;;;;9.57;95.86;99557.97;6253813;22;20001;-89
2021/06/26 19:14:34;;;;;;;;;;;;;;;9.53;95.14;99555.53;6252910;22;19922;-89
2021/06/26 19:17:04;;;;;;;;;;;;;;;9.59;94.97;99556.13;6282353;22;19915;-90
2021/06/26 19:19:49;;;;;;;;;;;;;;;9.53;94.66;99559.00;6280820;22;19915;-90
2021/06/26 19:22:21;;;;;;;;;;;;;;;9.52;94.92;99554.63;6280145;22;19915;-90
2021/06/26 19:24:48;;;;;;;;;;;;;;;9.48;95.59;99557.47;6253646;22;19915;-88
2021/06/26 19:27:15;;;;;;;;;;;;;;;9.59;93.94;99564.06;6279956;22;19931;-88
2021/06/26 19:29:41;;;;;;;;;;;;;;;9.56;94.35;99565.97;6254321;22;19923;-86
2021/06/26 19:32:14;;;;;;;;;;;;;;;9.54;95.16;99567.81;6280434;22;19973;-87
2021/06/26 19:34:40;;;;;;;;;;;;;;;9.55;96.68;99567.72;6280024;22;19969;-87
2021/06/26 19:37:09;;;;;;;;;;;;;;;9.53;95.64;99572.25;6279799;22;19986;-88
2021/06/26 19:39:40;;;;;;;;;;;;;;;9.53;95.38;99572.25;6279950;22;20205;-89
2021/06/26 19:42:07;;;;;;;;;;;;;;;9.51;95.87;99571.44;6280113;22;19942;-89
2021/06/26 19:44:34;;;;;;;;;;;;;;;9.58;95.79;99575.53;6253974;22;19951;-88
2021/06/26 19:46:59;;;;;;;;;;;;;;;9.53;95.35;99580.16;6280549;22;19915;-89
2021/06/26 19:49:25;;;;;;;;;;;;;;;9.61;94.31;99580.72;6280790;22;19927;-87
2021/06/26 19:51:51;;;;;;;;;;;;;;;9.57;94.71;99573.84;6280394;22;19916;-88
2021/06/26 19:54:18;;;;;;;;;;;;;;;9.67;94.43;99589.31;6280488;22;19915;-86
2021/06/26 19:56:46;;;;;;;;;;;;;;;9.67;93.81;99589.31;6254040;22;19919;-89
2021/06/26 19:59:37;;;;;;;;;;;;;;;9.61;95.35;99585.16;6281589;22;19926;-87
2021/06/26 20:04:28;;;;;;;;;;;;;;;9.53;95.77;99589.91;6283598;22;20289;-88
2021/06/26 20:06:53;;;;;;;;;;;;;;;9.74;94.00;99599.56;6280681;22;20012;-87
2021/06/26 20:09:50;;;;;;;;;;;;;;;9.74;93.87;99599.56;6281031;22;19916;-90
2021/06/26 20:12:16;;;;;;;;;;;;;;;9.56;94.79;99600.34;6227612;22;19991;-88
2021/06/26 20:14:45;;;;;;;;;;;;;;;9.58;95.06;99604.63;6274621;22;19984;-89
2021/06/26 20:17:12;;;;;;;;;;;;;;;9.59;94.64;99602.88;6285433;22;19922;-89
2021/06/26 20:19:42;;;;;;;;;;;;;;;9.64;95.04;99606.19;6282837;22;19915;-91
2021/06/26 20:22:18;;;;;;;;;;;;;;;15.49;83.28;99589.00;6288552;22;19923;-91
2021/06/26 20:30:13;;;;;;;;;;;;;;;10.22;98.50;99609.91;6275724;22;19919;-90
2021/06/26 20:32:59;;;;;;;;;;;;;;;10.13;97.33;99606.72;6174447;23;19959;-89
2021/06/26 20:35:28;;;;;;;;;;;;;;;10.00;96.89;99618.75;6250186;23;19926;-89
2021/06/26 20:38:03;;;;;;;;;;;;;;;10.04;95.49;99612.41;6252062;23;19927;-89
2021/06/26 20:41:26;;;;;;;;;;;;;;;9.96;95.60;99618.03;6225822;23;19951;-91
2021/06/26 20:43:35;;;;;;;;;;;;;;;9.91;95.47;99612.09;6244945;22;20284;-90
2021/06/26 20:46:21;;;;;;;;;;;;;;;9.92;94.59;99613.78;6254410;22;19915;-91
2021/06/26 20:49:03;;;;;;;;;;;;;;;;;;;;;
2021/06/26 20:51:54;;;;;;;;;;;;;;;10.20;96.91;99617.91;6284279;22;19934;-91
2021/06/26 20:54:19;;;;;;;;;;;;;;;10.17;97.61;99610.09;6262657;22;20229;-87
2021/06/26 20:56:45;;;;;;;;;;;;;;;9.95;96.53;99616.31;6253512;22;19915;-89
2021/06/26 20:59:14;;;;;;;;;;;;;;;9.97;96.44;99617.13;6279766;22;19926;-89
2021/06/26 21:04:12;;;;;;;;;;;;;;;9.93;94.99;99606.72;6283558;22;19926;-89
2021/06/26 21:07:01;;;;;;;;;;;;;;;;;;;;;
2021/06/26 21:11:52;;;;;;;;;;;;;;;9.91;95.59;99605.94;6282121;22;19908;-90
2021/06/26 21:20:24;;;;;;;;;;;;;;;;;;;;;
2021/06/26 21:25:39;;;;;;;;;;;;;;;;;;;;;
2021/06/26 21:28:06;;;;;;;;;;;;;;;9.84;94.91;99604.47;6281600;22;19943;-87
2021/06/26 21:30:31;;;;;;;;;;;;;;;9.83;95.08;99603.63;6283307;22;19947;-89
2021/06/26 21:33:00;;;;;;;;;;;;;;;9.85;96.19;99601.75;6281512;22;19934;-91
2021/06/26 21:35:40;;;;;;;;;;;;;;;9.89;94.15;99592.78;6286921;22;19915;-92
2021/06/26 21:38:09;;;;;;;;;;;;;;;9.81;94.86;99597.50;6284474;22;19994;-93
2021/06/26 21:43:23;;;;;;;;;;;;;;;9.73;96.40;99600.50;6276779;22;19919;-90
2021/06/26 21:46:21;;;;;;;;;;;;;;;9.71;97.11;99596.19;6284340;22;19930;-90
2021/06/26 21:48:49;;;;;;;;;;;;;;;9.83;96.66;99590.41;6221545;22;19915;-91
2021/06/26 21:51:17;;;;;;;;;;;;;;;9.85;96.41;99595.63;6285066;22;19937;-90
2021/06/26 21:56:18;;;;;;;;;;;;;;;9.87;95.66;99607.00;6272973;22;19946;-89
2021/06/26 22:01:52;;;;;;;;;;;;;;;9.80;95.71;99598.47;6166772;22;19915;-89
2021/06/26 22:04:42;;;;;;;;;;;;;;;9.76;96.08;99604.78;6281326;22;19974;-90
2021/06/26 22:07:12;;;;;;;;;;;;;;;9.89;94.61;99599.84;6253297;22;19915;-90
2021/06/26 22:09:40;;;;;;;;;;;;;;;9.91;94.42;99598.84;6280108;22;20290;-90
2021/06/26 22:12:06;;;;;;;;;;;;;;;9.75;96.35;99603.94;6280444;22;19934;-89
2021/06/26 22:14:32;;;;;;;;;;;;;;;9.70;95.90;99597.13;6279352;22;19915;-88
2021/06/26 22:16:58;;;;;;;;;;;;;;;9.80;94.96;99591.38;6278985;22;19923;-88
2021/06/26 22:19:26;;;;;;;;;;;;;;;9.83;94.57;99585.09;6252833;22;20280;-89
2021/06/26 22:21:51;;;;;;;;;;;;;;;9.75;95.74;99587.22;6279823;22;19915;-88
2021/06/26 22:24:19;;;;;;;;;;;;;;;9.85;94.58;99588.53;6278959;22;19926;-89
2021/06/26 22:26:45;;;;;;;;;;;;;;;9.73;94.96;99586.41;6279388;22;19927;-89
2021/06/26 22:29:42;;;;;;;;;;;;;;;9.84;94.13;99581.50;6280824;22;19916;-92
2021/06/26 22:32:08;;;;;;;;;;;;;;;9.76;94.95;99573.88;6233885;22;19919;-89
2021/06/26 22:34:39;;;;;;;;;;;;;;;9.83;95.36;99579.81;6281290;22;20041;-89
2021/06/26 22:37:14;;;;;;;;;;;;;;;9.84;94.21;99570.06;6254980;22;19923;-91
2021/06/26 22:39:40;;;;;;;;;;;;;;;9.76;95.12;99560.66;6283330;22;19925;-91
2021/06/26 22:42:05;;;;;;;;;;;;;;;9.85;94.66;99558.56;6255311;22;19943;-90
2021/06/26 22:44:31;;;;;;;;;;;;;;;9.84;93.99;99559.50;6280541;22;19915;-88
2021/06/26 22:46:56;;;;;;;;;;;;;;;9.78;94.87;99557.94;6281215;22;20203;-88
2021/06/26 22:49:21;;;;;;;;;;;;;;;9.84;94.20;99559.50;6195829;22;1941279;-90
2021/06/26 22:51:50;;;;;;;;;;;;;;;9.98;93.24;99560.59;6284429;22;19915;-90
2021/06/26 22:54:17;;;;;;;;;;;;;;;9.78;94.68;99561.47;6255788;22;19991;-89
2021/06/26 22:57:17;;;;;;;;;;;;;;;9.79;94.84;99562.31;6286305;22;19922;-91
2021/06/26 22:59:45;;;;;;;;;;;;;;;9.78;93.72;99556.19;6259696;22;20288;-90
2021/06/26 23:05:40;;;;;;;;;;;;;;;;;;;;;
2021/06/26 23:13:16;;;;;;;;;;;;;;;9.78;96.00;99556.19;6285712;22;20356;-91
2021/06/26 23:15:42;;;;;;;;;;;;;;;9.88;95.13;99559.28;6282849;22;19919;-90
2021/06/26 23:18:55;;;;;;;;;;;;;;;9.80;96.24;99553.47;6285439;22;20046;-90
2021/06/26 23:20:56;;;;;;;;;;;;;;;9.83;94.80;99548.06;6268128;22;19942;-91
2021/06/26 23:23:27;;;;;;;;;;;;;;;9.76;94.81;99551.88;6280965;22;20362;-91
2021/06/26 23:25:56;;;;;;;;;;;;;;;9.73;94.67;99554.66;6255418;22;19922;-90
2021/06/26 23:28:24;;;;;;;;;;;;;;;9.82;93.86;99560.41;6284336;22;19968;-91
2021/06/26 23:30:50;;;;;;;;;;;;;;;9.83;93.89;99558.63;6254667;22;19915;-89
2021/06/26 23:33:19;;;;;;;;;;;;;;;9.71;94.64;99553.88;6255377;22;19994;-91
2021/06/26 23:38:22;;;;;;;;;;;;;;;9.86;94.05;99544.41;6274703;22;19973;-91
2021/06/26 23:41:25;;;;;;;;;;;;;;;;;;;;;
2021/06/26 23:49:07;;;;;;;;;;;;;;;9.81;94.95;99534.00;6288964;22;20046;-91
2021/06/26 23:57:03;;;;;;;;;;;;;;;9.75;93.88;99545.72;6282630;22;19927;-92
